sensor_id;sensor_type;location;lat;lon;timestamp;P1;durP1;ratioP1;P2;durP2;ratioP2
47483;SDS011;54076;50.322;18.650;2023-07-20T00:03:16;11.30;;;3.30;;
47483;SDS011;54076;50.322;18.650;2023-07-20T00:08:19;10.00;;;2.80;;
47483;SDS011;54076;50.322;18.650;2023-07-20T00:13:20;7.80;;;3.00;;
47483;SDS011;54076;50.322;18.650;2023-07-20T00:18:21;8.10;;;2.60;;
47483;SDS011;54076;50.322;18.650;2023-07-20T00:23:22;7.60;;;2.70;;
47483;SDS011;54076;50.322;18.650;2023-07-20T00:28:23;9.70;;;2.80;;
47483;SDS011;54076;50.322;18.650;2023-07-20T00:33:24;7.70;;;2.80;;
47483;SDS011;54076;50.322;18.650;2023-07-20T00:38:25;6.70;;;2.60;;
47483;SDS011;54076;50.322;18.650;2023-07-20T00:43:26;7.40;;;2.80;;
47483;SDS011;54076;50.322;18.650;2023-07-20T00:48:27;7.70;;;2.80;;
47483;SDS011;54076;50.322;18.650;2023-07-20T00:53:28;6.70;;;2.80;;
47483;SDS011;54076;50.322;18.650;2023-07-20T00:58:29;6.40;;;2.40;;
47483;SDS011;54076;50.322;18.650;2023-07-20T01:03:30;5.90;;;2.50;;
47483;SDS011;54076;50.322;18.650;2023-07-20T01:14:06;5.50;;;2.60;;
47483;SDS011;54076;50.322;18.650;2023-07-20T01:19:07;7.50;;;2.70;;
47483;SDS011;54076;50.322;18.650;2023-07-20T01:35:40;9.40;;;3.20;;
47483;SDS011;54076;50.322;18.650;2023-07-20T01:40:43;7.20;;;3.00;;
47483;SDS011;54076;50.322;18.650;2023-07-20T01:45:45;7.70;;;2.70;;
47483;SDS011;54076;50.322;18.650;2023-07-20T01:50:46;7.60;;;3.10;;
47483;SDS011;54076;50.322;18.650;2023-07-20T01:55:47;7.20;;;2.90;;
47483;SDS011;54076;50.322;18.650;2023-07-20T02:00:48;7.50;;;2.70;;
47483;SDS011;54076;50.322;18.650;2023-07-20T02:05:49;6.20;;;2.40;;
47483;SDS011;54076;50.322;18.650;2023-07-20T02:10:51;5.90;;;2.60;;
47483;SDS011;54076;50.322;18.650;2023-07-20T02:15:52;5.70;;;2.30;;
47483;SDS011;54076;50.322;18.650;2023-07-20T02:20:54;5.50;;;1.80;;
47483;SDS011;54076;50.322;18.650;2023-07-20T02:25:55;4.50;;;1.80;;
47483;SDS011;54076;50.322;18.650;2023-07-20T02:30:55;5.00;;;2.00;;
47483;SDS011;54076;50.322;18.650;2023-07-20T02:35:56;4.70;;;1.90;;
47483;SDS011;54076;50.322;18.650;2023-07-20T02:40:57;8.00;;;2.20;;
47483;SDS011;54076;50.322;18.650;2023-07-20T02:45:58;4.60;;;2.00;;
47483;SDS011;54076;50.322;18.650;2023-07-20T02:50:59;5.60;;;2.30;;
47483;SDS011;54076;50.322;18.650;2023-07-20T02:56:00;5.90;;;2.10;;
47483;SDS011;54076;50.322;18.650;2023-07-20T03:01:01;5.20;;;1.90;;
47483;SDS011;54076;50.322;18.650;2023-07-20T03:06:02;7.00;;;1.80;;
47483;SDS011;54076;50.322;18.650;2023-07-20T03:11:03;4.90;;;1.80;;
47483;SDS011;54076;50.322;18.650;2023-07-20T03:16:04;4.40;;;1.70;;
47483;SDS011;54076;50.322;18.650;2023-07-20T03:21:06;5.10;;;1.90;;
47483;SDS011;54076;50.322;18.650;2023-07-20T03:26:08;5.60;;;2.00;;
47483;SDS011;54076;50.322;18.650;2023-07-20T03:31:09;6.00;;;1.70;;
47483;SDS011;54076;50.322;18.650;2023-07-20T03:36:10;5.20;;;1.90;;
47483;SDS011;54076;50.322;18.650;2023-07-20T03:41:11;6.10;;;1.90;;
47483;SDS011;54076;50.322;18.650;2023-07-20T03:46:12;6.00;;;1.70;;
47483;SDS011;54076;50.322;18.650;2023-07-20T03:51:13;3.70;;;1.70;;
47483;SDS011;54076;50.322;18.650;2023-07-20T03:56:14;5.50;;;1.90;;
47483;SDS011;54076;50.322;18.650;2023-07-20T04:01:15;5.90;;;1.80;;
47483;SDS011;54076;50.322;18.650;2023-07-20T04:06:17;4.80;;;1.60;;
47483;SDS011;54076;50.322;18.650;2023-07-20T04:11:18;4.50;;;1.60;;
47483;SDS011;54076;50.322;18.650;2023-07-20T04:16:19;4.40;;;1.70;;
47483;SDS011;54076;50.322;18.650;2023-07-20T04:21:20;5.20;;;1.70;;
47483;SDS011;54076;50.322;18.650;2023-07-20T04:26:21;4.70;;;1.80;;
47483;SDS011;54076;50.322;18.650;2023-07-20T04:31:22;5.30;;;1.80;;
47483;SDS011;54076;50.322;18.650;2023-07-20T04:36:23;4.10;;;1.60;;
47483;SDS011;54076;50.322;18.650;2023-07-20T04:41:24;5.40;;;1.80;;
47483;SDS011;54076;50.322;18.650;2023-07-20T04:46:25;4.90;;;1.90;;
47483;SDS011;54076;50.322;18.650;2023-07-20T04:51:26;5.50;;;2.10;;
47483;SDS011;54076;50.322;18.650;2023-07-20T04:56:27;6.10;;;1.90;;
47483;SDS011;54076;50.322;18.650;2023-07-20T05:01:28;4.90;;;1.80;;
47483;SDS011;54076;50.322;18.650;2023-07-20T05:06:29;4.70;;;1.80;;
47483;SDS011;54076;50.322;18.650;2023-07-20T05:11:30;5.00;;;1.70;;
47483;SDS011;54076;50.322;18.650;2023-07-20T05:16:31;5.20;;;1.80;;
47483;SDS011;54076;50.322;18.650;2023-07-20T05:21:32;5.20;;;1.70;;
47483;SDS011;54076;50.322;18.650;2023-07-20T05:26:33;4.50;;;2.00;;
47483;SDS011;54076;50.322;18.650;2023-07-20T05:31:34;4.80;;;2.10;;
47483;SDS011;54076;50.322;18.650;2023-07-20T05:36:35;4.40;;;1.70;;
47483;SDS011;54076;50.322;18.650;2023-07-20T05:41:37;5.50;;;1.80;;
47483;SDS011;54076;50.322;18.650;2023-07-20T05:46:38;5.60;;;2.40;;
47483;SDS011;54076;50.322;18.650;2023-07-20T05:51:39;4.30;;;2.10;;
47483;SDS011;54076;50.322;18.650;2023-07-20T05:56:40;6.20;;;2.30;;
47483;SDS011;54076;50.322;18.650;2023-07-20T06:01:41;6.10;;;1.80;;
47483;SDS011;54076;50.322;18.650;2023-07-20T06:06:42;4.00;;;1.60;;
47483;SDS011;54076;50.322;18.650;2023-07-20T06:11:43;4.30;;;1.80;;
47483;SDS011;54076;50.322;18.650;2023-07-20T06:16:44;4.20;;;1.70;;
47483;SDS011;54076;50.322;18.650;2023-07-20T06:21:45;3.90;;;1.60;;
47483;SDS011;54076;50.322;18.650;2023-07-20T06:26:46;4.50;;;1.50;;
47483;SDS011;54076;50.322;18.650;2023-07-20T06:31:48;3.70;;;1.20;;
47483;SDS011;54076;50.322;18.650;2023-07-20T06:36:49;3.50;;;1.50;;
47483;SDS011;54076;50.322;18.650;2023-07-20T06:41:50;3.70;;;1.50;;
47483;SDS011;54076;50.322;18.650;2023-07-20T06:46:51;3.50;;;1.50;;
47483;SDS011;54076;50.322;18.650;2023-07-20T06:51:52;7.30;;;1.50;;
47483;SDS011;54076;50.322;18.650;2023-07-20T06:56:53;4.30;;;1.70;;
47483;SDS011;54076;50.322;18.650;2023-07-20T07:01:54;4.90;;;1.50;;
47483;SDS011;54076;50.322;18.650;2023-07-20T07:06:55;6.50;;;2.00;;
47483;SDS011;54076;50.322;18.650;2023-07-20T07:11:56;6.70;;;1.60;;
47483;SDS011;54076;50.322;18.650;2023-07-20T07:16:56;4.00;;;1.70;;
47483;SDS011;54076;50.322;18.650;2023-07-20T07:21:57;6.40;;;1.80;;
47483;SDS011;54076;50.322;18.650;2023-07-20T07:26:59;5.10;;;1.80;;
47483;SDS011;54076;50.322;18.650;2023-07-20T07:32:02;4.60;;;2.10;;
47483;SDS011;54076;50.322;18.650;2023-07-20T07:37:04;4.80;;;1.90;;
47483;SDS011;54076;50.322;18.650;2023-07-20T07:42:05;6.50;;;2.90;;
47483;SDS011;54076;50.322;18.650;2023-07-20T07:47:07;10.00;;;3.40;;
47483;SDS011;54076;50.322;18.650;2023-07-20T07:52:07;8.30;;;3.20;;
47483;SDS011;54076;50.322;18.650;2023-07-20T07:57:09;10.20;;;3.10;;
47483;SDS011;54076;50.322;18.650;2023-07-20T08:02:10;7.50;;;3.60;;
47483;SDS011;54076;50.322;18.650;2023-07-20T08:07:10;9.90;;;3.90;;
47483;SDS011;54076;50.322;18.650;2023-07-20T08:12:11;8.60;;;3.80;;
47483;SDS011;54076;50.322;18.650;2023-07-20T08:17:14;9.70;;;4.30;;
47483;SDS011;54076;50.322;18.650;2023-07-20T08:22:14;11.10;;;4.80;;
47483;SDS011;54076;50.322;18.650;2023-07-20T08:27:16;11.50;;;5.10;;
47483;SDS011;54076;50.322;18.650;2023-07-20T08:32:17;10.30;;;5.00;;
47483;SDS011;54076;50.322;18.650;2023-07-20T08:37:18;10.30;;;5.40;;
47483;SDS011;54076;50.322;18.650;2023-07-20T08:42:19;9.80;;;4.80;;
47483;SDS011;54076;50.322;18.650;2023-07-20T08:47:21;11.60;;;5.80;;
47483;SDS011;54076;50.322;18.650;2023-07-20T08:52:23;10.40;;;5.70;;
47483;SDS011;54076;50.322;18.650;2023-07-20T08:57:24;7.80;;;4.60;;
47483;SDS011;54076;50.322;18.650;2023-07-20T09:02:25;10.40;;;4.90;;
47483;SDS011;54076;50.322;18.650;2023-07-20T09:07:27;10.00;;;4.90;;
47483;SDS011;54076;50.322;18.650;2023-07-20T09:12:28;8.40;;;5.30;;
47483;SDS011;54076;50.322;18.650;2023-07-20T09:17:29;11.60;;;6.40;;
47483;SDS011;54076;50.322;18.650;2023-07-20T09:22:31;10.00;;;5.80;;
47483;SDS011;54076;50.322;18.650;2023-07-20T09:27:39;13.90;;;6.70;;
47483;SDS011;54076;50.322;18.650;2023-07-20T09:32:43;11.30;;;6.50;;
47483;SDS011;54076;50.322;18.650;2023-07-20T09:37:58;11.60;;;5.90;;
47483;SDS011;54076;50.322;18.650;2023-07-20T09:43:00;13.60;;;6.70;;
47483;SDS011;54076;50.322;18.650;2023-07-20T09:48:07;8.40;;;5.10;;
47483;SDS011;54076;50.322;18.650;2023-07-20T09:53:13;9.00;;;4.60;;
47483;SDS011;54076;50.322;18.650;2023-07-20T09:58:17;7.30;;;4.30;;
47483;SDS011;54076;50.322;18.650;2023-07-20T10:03:22;11.40;;;4.90;;
47483;SDS011;54076;50.322;18.650;2023-07-20T10:08:30;8.70;;;4.60;;
47483;SDS011;54076;50.322;18.650;2023-07-20T10:13:32;9.10;;;4.00;;
47483;SDS011;54076;50.322;18.650;2023-07-20T10:24:18;7.50;;;3.60;;
47483;SDS011;54076;50.322;18.650;2023-07-20T10:29:19;5.80;;;3.10;;
47483;SDS011;54076;50.322;18.650;2023-07-20T10:34:21;5.00;;;3.00;;
47483;SDS011;54076;50.322;18.650;2023-07-20T10:39:24;6.40;;;3.00;;
47483;SDS011;54076;50.322;18.650;2023-07-20T10:44:28;8.40;;;3.70;;
47483;SDS011;54076;50.322;18.650;2023-07-20T10:49:28;5.20;;;2.30;;
47483;SDS011;54076;50.322;18.650;2023-07-20T11:04:41;5.10;;;2.40;;
47483;SDS011;54076;50.322;18.650;2023-07-20T11:09:44;4.40;;;2.40;;
47483;SDS011;54076;50.322;18.650;2023-07-20T11:14:56;4.90;;;2.30;;
47483;SDS011;54076;50.322;18.650;2023-07-20T11:19:58;5.00;;;2.30;;
47483;SDS011;54076;50.322;18.650;2023-07-20T11:25:04;5.50;;;2.40;;
47483;SDS011;54076;50.322;18.650;2023-07-20T11:30:15;5.10;;;2.60;;
47483;SDS011;54076;50.322;18.650;2023-07-20T11:35:17;5.90;;;3.10;;
47483;SDS011;54076;50.322;18.650;2023-07-20T11:40:18;6.40;;;3.10;;
47483;SDS011;54076;50.322;18.650;2023-07-20T11:45:19;5.00;;;2.40;;
47483;SDS011;54076;50.322;18.650;2023-07-20T11:50:20;4.30;;;2.20;;
47483;SDS011;54076;50.322;18.650;2023-07-20T11:55:22;4.70;;;2.40;;
47483;SDS011;54076;50.322;18.650;2023-07-20T12:00:24;5.40;;;2.60;;
47483;SDS011;54076;50.322;18.650;2023-07-20T12:05:25;7.10;;;3.40;;
47483;SDS011;54076;50.322;18.650;2023-07-20T12:10:29;4.90;;;2.60;;
47483;SDS011;54076;50.322;18.650;2023-07-20T12:15:30;3.80;;;2.00;;
47483;SDS011;54076;50.322;18.650;2023-07-20T12:31:56;4.90;;;1.80;;
47483;SDS011;54076;50.322;18.650;2023-07-20T12:36:57;4.50;;;1.70;;
47483;SDS011;54076;50.322;18.650;2023-07-20T12:41:58;8.30;;;2.00;;
47483;SDS011;54076;50.322;18.650;2023-07-20T12:46:59;6.70;;;2.60;;
47483;SDS011;54076;50.322;18.650;2023-07-20T12:52:00;4.90;;;1.70;;
47483;SDS011;54076;50.322;18.650;2023-07-20T12:57:00;6.50;;;2.30;;
47483;SDS011;54076;50.322;18.650;2023-07-20T13:02:04;4.40;;;1.90;;
47483;SDS011;54076;50.322;18.650;2023-07-20T13:07:09;5.50;;;1.80;;
47483;SDS011;54076;50.322;18.650;2023-07-20T13:12:12;4.40;;;1.90;;
47483;SDS011;54076;50.322;18.650;2023-07-20T13:17:13;4.80;;;1.80;;
47483;SDS011;54076;50.322;18.650;2023-07-20T13:22:14;4.80;;;1.90;;
47483;SDS011;54076;50.322;18.650;2023-07-20T13:27:16;6.20;;;1.90;;
47483;SDS011;54076;50.322;18.650;2023-07-20T13:32:18;5.10;;;1.80;;
47483;SDS011;54076;50.322;18.650;2023-07-20T13:37:19;3.70;;;1.60;;
47483;SDS011;54076;50.322;18.650;2023-07-20T13:42:20;4.50;;;1.50;;
47483;SDS011;54076;50.322;18.650;2023-07-20T13:47:22;4.70;;;1.70;;
47483;SDS011;54076;50.322;18.650;2023-07-20T13:52:23;5.60;;;1.80;;
47483;SDS011;54076;50.322;18.650;2023-07-20T13:57:24;6.00;;;1.70;;
47483;SDS011;54076;50.322;18.650;2023-07-20T14:02:25;3.60;;;1.60;;
47483;SDS011;54076;50.322;18.650;2023-07-20T14:07:26;3.80;;;1.50;;
47483;SDS011;54076;50.322;18.650;2023-07-20T14:12:26;5.80;;;1.50;;
47483;SDS011;54076;50.322;18.650;2023-07-20T14:17:27;3.30;;;1.40;;
47483;SDS011;54076;50.322;18.650;2023-07-20T14:22:28;3.40;;;1.20;;
47483;SDS011;54076;50.322;18.650;2023-07-20T14:27:29;5.90;;;1.30;;
47483;SDS011;54076;50.322;18.650;2023-07-20T14:32:30;4.70;;;1.20;;
47483;SDS011;54076;50.322;18.650;2023-07-20T14:37:32;3.20;;;1.20;;
47483;SDS011;54076;50.322;18.650;2023-07-20T14:42:34;4.30;;;1.30;;
47483;SDS011;54076;50.322;18.650;2023-07-20T14:47:35;5.10;;;1.40;;
47483;SDS011;54076;50.322;18.650;2023-07-20T14:52:37;3.20;;;1.20;;
47483;SDS011;54076;50.322;18.650;2023-07-20T14:57:38;4.10;;;1.30;;
47483;SDS011;54076;50.322;18.650;2023-07-20T15:02:40;5.90;;;1.40;;
47483;SDS011;54076;50.322;18.650;2023-07-20T15:07:41;4.10;;;1.70;;
47483;SDS011;54076;50.322;18.650;2023-07-20T15:12:43;6.70;;;1.70;;
47483;SDS011;54076;50.322;18.650;2023-07-20T15:17:44;16.80;;;7.90;;
47483;SDS011;54076;50.322;18.650;2023-07-20T15:22:45;6.60;;;2.30;;
47483;SDS011;54076;50.322;18.650;2023-07-20T15:27:47;4.60;;;1.50;;
47483;SDS011;54076;50.322;18.650;2023-07-20T15:32:48;3.90;;;1.50;;
47483;SDS011;54076;50.322;18.650;2023-07-20T15:37:49;4.80;;;1.50;;
47483;SDS011;54076;50.322;18.650;2023-07-20T15:42:50;3.20;;;1.40;;
47483;SDS011;54076;50.322;18.650;2023-07-20T15:47:51;3.80;;;1.50;;
47483;SDS011;54076;50.322;18.650;2023-07-20T15:52:52;5.60;;;1.70;;
47483;SDS011;54076;50.322;18.650;2023-07-20T15:57:53;4.90;;;2.00;;
47483;SDS011;54076;50.322;18.650;2023-07-20T16:02:53;3.90;;;1.80;;
47483;SDS011;54076;50.322;18.650;2023-07-20T16:07:56;4.90;;;1.80;;
47483;SDS011;54076;50.322;18.650;2023-07-20T16:12:57;3.70;;;1.50;;
47483;SDS011;54076;50.322;18.650;2023-07-20T16:17:58;5.40;;;2.50;;
47483;SDS011;54076;50.322;18.650;2023-07-20T16:22:59;3.70;;;1.50;;
47483;SDS011;54076;50.322;18.650;2023-07-20T16:28:00;4.40;;;2.00;;
47483;SDS011;54076;50.322;18.650;2023-07-20T16:33:01;3.50;;;1.40;;
47483;SDS011;54076;50.322;18.650;2023-07-20T16:38:03;3.10;;;1.30;;
47483;SDS011;54076;50.322;18.650;2023-07-20T16:43:04;4.90;;;1.50;;
47483;SDS011;54076;50.322;18.650;2023-07-20T16:48:05;3.50;;;1.30;;
47483;SDS011;54076;50.322;18.650;2023-07-20T16:53:07;5.00;;;1.60;;
47483;SDS011;54076;50.322;18.650;2023-07-20T16:58:08;3.90;;;1.20;;
47483;SDS011;54076;50.322;18.650;2023-07-20T17:03:09;3.70;;;1.10;;
47483;SDS011;54076;50.322;18.650;2023-07-20T17:08:10;4.30;;;1.40;;
47483;SDS011;54076;50.322;18.650;2023-07-20T17:13:11;3.80;;;1.30;;
47483;SDS011;54076;50.322;18.650;2023-07-20T17:18:15;3.10;;;1.30;;
47483;SDS011;54076;50.322;18.650;2023-07-20T17:23:17;3.20;;;1.40;;
47483;SDS011;54076;50.322;18.650;2023-07-20T17:28:18;3.90;;;1.50;;
47483;SDS011;54076;50.322;18.650;2023-07-20T17:36:33;4.70;;;1.30;;
47483;SDS011;54076;50.322;18.650;2023-07-20T17:41:34;4.20;;;1.40;;
47483;SDS011;54076;50.322;18.650;2023-07-20T17:46:35;3.70;;;1.40;;
47483;SDS011;54076;50.322;18.650;2023-07-20T17:51:36;4.70;;;1.30;;
47483;SDS011;54076;50.322;18.650;2023-07-20T17:56:37;3.90;;;1.70;;
47483;SDS011;54076;50.322;18.650;2023-07-20T18:01:38;3.50;;;1.60;;
47483;SDS011;54076;50.322;18.650;2023-07-20T18:06:38;4.40;;;1.80;;
47483;SDS011;54076;50.322;18.650;2023-07-20T18:11:39;5.20;;;2.10;;
47483;SDS011;54076;50.322;18.650;2023-07-20T18:16:40;4.30;;;1.70;;
47483;SDS011;54076;50.322;18.650;2023-07-20T18:21:41;6.90;;;1.70;;
47483;SDS011;54076;50.322;18.650;2023-07-20T18:26:42;4.40;;;1.60;;
47483;SDS011;54076;50.322;18.650;2023-07-20T18:31:43;5.00;;;1.50;;
47483;SDS011;54076;50.322;18.650;2023-07-20T18:36:44;3.70;;;1.60;;
47483;SDS011;54076;50.322;18.650;2023-07-20T18:41:45;4.60;;;1.70;;
47483;SDS011;54076;50.322;18.650;2023-07-20T18:46:46;4.10;;;2.20;;
47483;SDS011;54076;50.322;18.650;2023-07-20T18:51:47;6.40;;;2.40;;
47483;SDS011;54076;50.322;18.650;2023-07-20T18:56:49;5.90;;;2.50;;
47483;SDS011;54076;50.322;18.650;2023-07-20T19:01:50;5.50;;;2.20;;
47483;SDS011;54076;50.322;18.650;2023-07-20T19:06:51;5.00;;;2.30;;
47483;SDS011;54076;50.322;18.650;2023-07-20T19:11:52;6.40;;;2.30;;
47483;SDS011;54076;50.322;18.650;2023-07-20T19:16:53;7.00;;;2.40;;
47483;SDS011;54076;50.322;18.650;2023-07-20T19:21:55;5.80;;;2.70;;
47483;SDS011;54076;50.322;18.650;2023-07-20T19:26:56;4.50;;;2.20;;
47483;SDS011;54076;50.322;18.650;2023-07-20T19:31:57;6.80;;;2.10;;
47483;SDS011;54076;50.322;18.650;2023-07-20T19:36:58;4.90;;;2.50;;
47483;SDS011;54076;50.322;18.650;2023-07-20T19:42:00;8.20;;;2.50;;
47483;SDS011;54076;50.322;18.650;2023-07-20T19:47:01;5.00;;;2.40;;
47483;SDS011;54076;50.322;18.650;2023-07-20T19:52:02;8.90;;;2.70;;
47483;SDS011;54076;50.322;18.650;2023-07-20T19:57:04;6.60;;;2.40;;
47483;SDS011;54076;50.322;18.650;2023-07-20T20:02:05;4.80;;;2.40;;
47483;SDS011;54076;50.322;18.650;2023-07-20T20:07:06;6.90;;;2.60;;
47483;SDS011;54076;50.322;18.650;2023-07-20T20:12:12;4.80;;;2.30;;
47483;SDS011;54076;50.322;18.650;2023-07-20T20:17:13;5.70;;;2.90;;
47483;SDS011;54076;50.322;18.650;2023-07-20T20:22:18;6.00;;;2.80;;
47483;SDS011;54076;50.322;18.650;2023-07-20T20:27:19;6.50;;;3.30;;
47483;SDS011;54076;50.322;18.650;2023-07-20T20:32:20;6.50;;;3.10;;
47483;SDS011;54076;50.322;18.650;2023-07-20T20:37:20;9.20;;;3.80;;
47483;SDS011;54076;50.322;18.650;2023-07-20T20:42:25;8.30;;;3.80;;
47483;SDS011;54076;50.322;18.650;2023-07-20T20:47:26;6.10;;;3.10;;
47483;SDS011;54076;50.322;18.650;2023-07-20T20:52:27;7.70;;;2.90;;
47483;SDS011;54076;50.322;18.650;2023-07-20T20:57:28;7.30;;;2.90;;
47483;SDS011;54076;50.322;18.650;2023-07-20T21:02:30;7.30;;;3.10;;
47483;SDS011;54076;50.322;18.650;2023-07-20T21:07:31;5.70;;;2.90;;
47483;SDS011;54076;50.322;18.650;2023-07-20T21:12:32;5.80;;;2.70;;
47483;SDS011;54076;50.322;18.650;2023-07-20T21:17:34;6.00;;;3.30;;
47483;SDS011;54076;50.322;18.650;2023-07-20T21:22:36;5.20;;;2.80;;
47483;SDS011;54076;50.322;18.650;2023-07-20T21:27:37;5.90;;;2.50;;
47483;SDS011;54076;50.322;18.650;2023-07-20T21:32:39;4.70;;;2.50;;
47483;SDS011;54076;50.322;18.650;2023-07-20T21:37:40;7.00;;;2.60;;
47483;SDS011;54076;50.322;18.650;2023-07-20T21:42:42;6.70;;;2.80;;
47483;SDS011;54076;50.322;18.650;2023-07-20T21:47:43;7.50;;;3.00;;
47483;SDS011;54076;50.322;18.650;2023-07-20T21:52:44;5.90;;;2.40;;
47483;SDS011;54076;50.322;18.650;2023-07-20T21:57:45;5.40;;;2.80;;
47483;SDS011;54076;50.322;18.650;2023-07-20T22:02:46;7.40;;;2.60;;
47483;SDS011;54076;50.322;18.650;2023-07-20T22:07:47;7.40;;;3.40;;
47483;SDS011;54076;50.322;18.650;2023-07-20T22:12:48;5.60;;;2.90;;
47483;SDS011;54076;50.322;18.650;2023-07-20T22:17:51;5.30;;;2.90;;
47483;SDS011;54076;50.322;18.650;2023-07-20T22:22:52;6.50;;;3.10;;
47483;SDS011;54076;50.322;18.650;2023-07-20T22:27:53;6.00;;;3.00;;
47483;SDS011;54076;50.322;18.650;2023-07-20T22:32:54;6.50;;;3.10;;
47483;SDS011;54076;50.322;18.650;2023-07-20T22:37:56;6.10;;;3.20;;
47483;SDS011;54076;50.322;18.650;2023-07-20T22:42:57;5.30;;;2.80;;
47483;SDS011;54076;50.322;18.650;2023-07-20T22:47:57;5.30;;;3.00;;
47483;SDS011;54076;50.322;18.650;2023-07-20T22:52:58;6.60;;;2.80;;
47483;SDS011;54076;50.322;18.650;2023-07-20T22:57:59;5.60;;;3.20;;
47483;SDS011;54076;50.322;18.650;2023-07-20T23:03:00;6.70;;;3.20;;
47483;SDS011;54076;50.322;18.650;2023-07-20T23:08:01;7.20;;;3.10;;
47483;SDS011;54076;50.322;18.650;2023-07-20T23:13:02;6.70;;;3.10;;
47483;SDS011;54076;50.322;18.650;2023-07-20T23:18:03;6.10;;;3.00;;
47483;SDS011;54076;50.322;18.650;2023-07-20T23:23:04;7.30;;;3.60;;
47483;SDS011;54076;50.322;18.650;2023-07-20T23:28:05;7.00;;;3.30;;
47483;SDS011;54076;50.322;18.650;2023-07-20T23:33:05;7.70;;;3.60;;
47483;SDS011;54076;50.322;18.650;2023-07-20T23:38:07;8.60;;;3.70;;
47483;SDS011;54076;50.322;18.650;2023-07-20T23:43:08;7.90;;;3.90;;
47483;SDS011;54076;50.322;18.650;2023-07-20T23:48:09;10.30;;;4.00;;
47483;SDS011;54076;50.322;18.650;2023-07-20T23:53:13;7.90;;;4.10;;
47483;SDS011;54076;50.322;18.650;2023-07-20T23:58:14;7.70;;;4.30;;
